Time;durP1;ratioP1;P1;durP2;ratioP2;P2;SDS_P1;SDS_P2;PMS_P1;PMS_P2;Temp;Humidity;BMP_temperature;BMP_pressure;BME280_temperature;BME280_humidity;BME280_pressure;Samples;Min_cycle;Max_cycle;Signal;HPM_P1;HPM_P2
2023/10/03 00:00:24;;;;;;;11.50;6.10;;;;;;;12.49;60.54;101347.84;105159;1259;64578;-56
2023/10/03 00:02:54;;;;;;;13.40;6.40;;;;;;;12.46;60.69;101347.33;105728;1267;60171;-55
2023/10/03 00:05:24;;;;;;;11.30;6.00;;;;;;;12.49;60.67;101345.36;106451;1257;63682;-56
2023/10/03 00:07:52;;;;;;;13.00;6.60;;;;;;;12.53;60.82;101344.02;105711;1258;59623;-57
2023/10/03 00:10:19;;;;;;;11.10;6.20;;;;;;;12.53;60.81;101345.77;105745;1258;59970;-56
2023/10/03 00:12:51;;;;;;;12.30;6.70;;;;;;;12.52;61.08;101344.05;105156;1262;64189;-57
2023/10/03 00:15:28;;;;;;;13.50;6.50;;;;;;;12.54;61.08;101346.21;105103;1264;61413;-56
2023/10/03 00:17:55;;;;;;;13.20;5.80;;;;;;;12.56;61.16;101342.91;105618;1260;64654;-56
2023/10/03 00:20:23;;;;;;;9.20;2.50;;;;;;;12.56;61.00;101345.04;105141;1257;59851;-56
2023/10/03 00:22:51;;;;;;;10.80;6.30;;;;;;;12.53;60.93;101343.80;105650;1265;59692;-55
2023/10/03 00:25:19;;;;;;;12.30;6.40;;;;;;;12.48;60.82;101344.18;105091;1263;62854;-56
2023/10/03 00:27:49;;;;;;;11.10;5.80;;;;;;;12.46;60.75;101344.14;105254;1263;61887;-57
2023/10/03 00:30:20;;;;;;;11.30;6.10;;;;;;;12.44;60.73;101348.85;105104;1263;63762;-57
2023/10/03 00:32:48;;;;;;;10.60;5.30;;;;;;;12.36;60.72;101347.70;105714;1263;59775;-57
2023/10/03 00:35:16;;;;;;;7.00;2.00;;;;;;;12.25;60.95;101344.45;105067;1263;59733;-57
2023/10/03 00:37:45;;;;;;;10.20;5.50;;;;;;;12.16;61.28;101343.52;105016;1263;62816;-62
2023/10/03 00:40:27;;;;;;;13.20;6.50;;;;;;;12.12;61.39;101345.88;105126;1263;61478;-62
2023/10/03 00:42:59;;;;;;;10.30;5.40;;;;;;;12.11;61.51;101346.52;105625;1264;62531;-63
2023/10/03 00:45:29;;;;;;;10.50;5.60;;;;;;;12.06;61.47;101350.35;105437;1260;59747;-61
2023/10/03 00:48:01;;;;;;;12.20;5.60;;;;;;;12.07;61.40;101352.92;105441;1263;59502;-62
2023/10/03 00:50:31;;;;;;;5.10;2.00;;;;;;;12.10;61.38;101352.02;105413;1261;64130;-61
2023/10/03 00:53:00;;;;;;;12.20;5.70;;;;;;;12.10;61.44;101351.51;105079;1264;61558;-62
2023/10/03 00:55:29;;;;;;;16.20;6.20;;;;;;;12.11;61.69;101349.52;105470;1264;62558;-62
2023/10/03 01:00:43;;;;;;;11.60;5.40;;;;;;;12.11;61.57;101349.33;105127;1262;59224;-60
2023/10/03 01:03:36;;;;;;;12.90;5.80;;;;;;;12.06;61.57;101348.59;105107;1258;62970;-61
2023/10/03 01:06:15;;;;;;;10.30;5.70;;;;;;;12.05;61.71;101344.94;105037;1258;61950;-61
2023/10/03 01:08:47;;;;;;;11.10;5.40;;;;;;;12.06;61.92;101343.98;105248;1261;64480;-61
2023/10/03 01:11:16;;;;;;;13.20;6.20;;;;;;;12.13;61.89;101343.73;105261;1257;59733;-61
2023/10/03 01:13:47;;;;;;;11.40;5.40;;;;;;;12.19;61.87;101344.49;105866;1257;59568;-62
2023/10/03 01:16:33;;;;;;;14.40;5.90;;;;;;;12.24;61.91;101346.41;104878;1261;64133;-61
2023/10/03 01:19:14;;;;;;;13.60;6.20;;;;;;;12.27;62.03;101342.34;105531;1257;61367;-62
2023/10/03 01:21:46;;;;;;;10.30;5.80;;;;;;;12.28;62.06;101336.52;105613;1260;64706;-61
2023/10/03 01:24:15;;;;;;;7.60;2.40;;;;;;;12.24;61.88;101336.94;105174;1259;60536;-59
2023/10/03 01:26:44;;;;;;;13.00;5.60;;;;;;;12.17;61.77;101337.11;105126;1261;60437;-61
2023/10/03 01:29:12;;;;;;;12.20;6.10;;;;;;;12.08;61.78;101339.63;105290;1261;65366;-62
2023/10/03 01:31:41;;;;;;;10.90;5.30;;;;;;;12.02;61.89;101339.73;105131;1258;61337;-62
2023/10/03 01:34:10;;;;;;;9.80;5.40;;;;;;;12.00;61.82;101338.80;106034;1260;63737;-62
2023/10/03 01:36:40;;;;;;;9.70;5.40;;;;;;;12.01;61.80;101337.67;105283;1263;60569;-61
2023/10/03 01:39:07;;;;;;;8.20;2.20;;;;;;;12.01;61.81;101335.36;106085;1258;60535;-62
2023/10/03 01:41:35;;;;;;;11.60;5.20;;;;;;;11.99;61.81;101332.77;105051;1262;66474;-61
2023/10/03 01:44:03;;;;;;;11.60;5.20;;;;;;;11.94;61.84;101332.70;105438;1258;63726;-62
2023/10/03 01:46:31;;;;;;;15.80;6.70;;;;;;;11.91;61.87;101337.16;105050;1258;72802;-62
2023/10/03 01:48:59;;;;;;;9.90;3.00;;;;;;;11.87;61.89;101339.71;105145;1263;60537;-62
2023/10/03 01:51:28;;;;;;;11.80;5.80;;;;;;;11.81;62.01;101336.77;105489;1263;60821;-61
2023/10/03 01:53:56;;;;;;;11.20;5.70;;;;;;;11.77;62.19;101330.53;105135;1257;64921;-63
2023/10/03 01:56:24;;;;;;;13.10;5.90;;;;;;;11.77;62.05;101331.09;105151;1257;61408;-62
2023/10/03 01:58:54;;;;;;;12.70;5.80;;;;;;;11.80;61.89;101334.70;104979;1261;63677;-62
2023/10/03 02:01:26;;;;;;;11.40;6.00;;;;;;;11.83;61.69;101330.28;105481;1260;60570;-60
2023/10/03 02:03:53;;;;;;;12.60;6.20;;;;;;;11.86;61.75;101334.46;105590;1262;60425;-63
2023/10/03 02:06:23;;;;;;;14.90;6.60;;;;;;;11.90;61.77;101335.42;105012;1258;64904;-63
2023/10/03 02:08:50;;;;;;;12.10;5.80;;;;;;;11.93;61.74;101339.13;105563;1263;60379;-63
2023/10/03 02:11:19;;;;;;;13.30;6.20;;;;;;;11.94;61.84;101341.91;105048;1262;62460;-65
2023/10/03 02:13:48;;;;;;;12.60;2.20;;;;;;;11.93;61.88;101343.92;104997;1264;60572;-61
2023/10/03 02:16:17;;;;;;;12.80;6.10;;;;;;;11.88;61.92;101342.46;105169;1258;60652;-61
2023/10/03 02:18:45;;;;;;;12.30;5.70;;;;;;;11.80;62.07;101342.63;105128;1258;63725;-62
2023/10/03 02:21:16;;;;;;;11.90;5.80;;;;;;;11.77;61.99;101343.73;105125;1259;60799;-62
2023/10/03 02:23:43;;;;;;;13.10;5.90;;;;;;;11.76;62.04;101341.33;105007;1261;64314;-62
2023/10/03 02:26:11;;;;;;;8.30;2.20;;;;;;;11.76;62.18;101339.10;105129;1263;60485;-62
2023/10/03 02:28:40;;;;;;;16.30;6.40;;;;;;;11.73;62.19;101336.63;105104;1258;60329;-62
2023/10/03 02:31:09;;;;;;;7.00;2.50;;;;;;;11.68;62.37;101337.33;105142;1261;64865;-62
2023/10/03 02:33:43;;;;;;;12.80;5.70;;;;;;;11.63;62.63;101338.16;105423;1260;61308;-61
2023/10/03 02:36:11;;;;;;;11.90;5.90;;;;;;;11.61;62.60;101337.77;105178;1271;62527;-61
2023/10/03 02:38:39;;;;;;;12.70;5.60;;;;;;;11.61;62.74;101336.20;106014;1257;60700;-62
2023/10/03 02:41:07;;;;;;;5.80;1.80;;;;;;;11.60;62.85;101335.79;105012;1257;60732;-62
2023/10/03 02:43:38;;;;;;;13.00;5.60;;;;;;;11.62;62.92;101338.79;105074;1262;67663;-62
2023/10/03 02:46:11;;;;;;;10.20;4.50;;;;;;;11.66;62.88;101342.38;105104;1263;61974;-62
2023/10/03 02:48:43;;;;;;;12.10;5.50;;;;;;;11.68;62.80;101345.23;105066;1258;63752;-63
2023/10/03 02:51:14;;;;;;;8.50;3.40;;;;;;;11.65;62.82;101340.66;105144;1259;61064;-63
2023/10/03 02:53:43;;;;;;;8.90;4.90;;;;;;;11.61;62.78;101340.98;105171;1263;60385;-64
2023/10/03 02:56:15;;;;;;;10.20;5.20;;;;;;;11.54;62.85;101341.77;105094;1257;63692;-62
2023/10/03 02:58:43;;;;;;;10.00;5.60;;;;;;;11.46;62.93;101338.64;105225;1263;61529;-58
2023/10/03 03:01:11;;;;;;;6.20;2.60;;;;;;;11.39;63.10;101340.24;105229;1260;63843;-61
2023/10/03 03:03:39;;;;;;;10.00;4.90;;;;;;;11.37;63.14;101340.71;105102;1258;60501;-61
2023/10/03 03:06:11;;;;;;;9.60;5.40;;;;;;;11.39;63.09;101344.56;105145;1263;60387;-61
2023/10/03 03:08:39;;;;;;;11.10;6.00;;;;;;;11.41;63.01;101347.24;105286;1260;64960;-61
2023/10/03 03:11:09;;;;;;;6.50;1.90;;;;;;;11.38;62.94;101350.81;105029;1264;62021;-62
2023/10/03 03:13:37;;;;;;;16.20;6.50;;;;;;;11.33;63.07;101350.46;104996;1257;62566;-61
2023/10/03 03:16:05;;;;;;;14.00;6.30;;;;;;;11.28;63.28;101353.94;105001;1257;60542;-60
2023/10/03 03:18:40;;;;;;;5.70;1.80;;;;;;;11.23;63.36;101352.38;105351;1257;60559;-62
2023/10/03 03:21:14;;;;;;;11.20;5.80;;;;;;;11.16;63.61;101354.60;105357;1257;63722;-61
2023/10/03 03:23:52;;;;;;;7.10;2.60;;;;;;;11.10;63.82;101354.97;105097;1258;62001;-63
2023/10/03 03:26:35;;;;;;;11.30;5.80;;;;;;;11.11;63.91;101353.96;105703;1260;63714;-61
2023/10/03 03:29:21;;;;;;;14.50;5.80;;;;;;;11.14;64.13;101356.46;105469;1257;60568;-65
2023/10/03 03:31:50;;;;;;;12.20;6.10;;;;;;;11.16;64.34;101356.49;105744;1257;60562;-62
2023/10/03 03:34:20;;;;;;;11.10;5.90;;;;;;;11.15;64.50;101358.48;105155;1257;64884;-62
2023/10/03 03:36:54;;;;;;;12.40;5.70;;;;;;;11.12;64.69;101359.02;105793;1257;61390;-62
2023/10/03 03:39:26;;;;;;;7.20;2.00;;;;;;;11.12;64.85;101352.04;105073;1261;63824;-63
2023/10/03 03:41:54;;;;;;;12.10;6.10;;;;;;;11.13;64.92;101351.80;105440;1260;62191;-61
2023/10/03 03:44:22;;;;;;;11.50;5.50;;;;;;;11.13;64.72;101346.50;105681;1260;60440;-61
2023/10/03 03:46:53;;;;;;;8.40;2.00;;;;;;;11.19;64.67;101347.84;105406;1260;64906;-62
2023/10/03 03:49:23;;;;;;;10.80;5.70;;;;;;;11.27;64.55;101348.92;105676;1263;62462;-62
2023/10/03 03:51:51;;;;;;;11.10;5.30;;;;;;;11.32;64.28;101346.09;104971;1261;63765;-62
2023/10/03 03:54:19;;;;;;;12.40;6.30;;;;;;;11.32;64.07;101343.62;105207;1257;60446;-62
2023/10/03 03:56:48;;;;;;;10.40;5.20;;;;;;;11.31;64.03;101342.84;105044;1263;60609;-62
2023/10/03 03:59:16;;;;;;;6.80;1.90;;;;;;;11.28;63.73;101347.96;105118;1257;64930;-57
2023/10/03 04:01:43;;;;;;;11.10;6.00;;;;;;;11.23;63.48;101346.74;105019;1261;61324;-55
2023/10/03 04:04:11;;;;;;;12.40;5.50;;;;;;;11.15;63.31;101344.77;105186;1257;64034;-57
2023/10/03 04:06:39;;;;;;;11.30;5.30;;;;;;;11.08;63.20;101341.21;105155;1261;60510;-61
2023/10/03 04:09:07;;;;;;;7.00;2.00;;;;;;;11.03;63.18;101341.17;105185;1257;60568;-61
2023/10/03 04:11:36;;;;;;;10.10;5.50;;;;;;;11.02;63.05;101340.94;105428;1257;64917;-61
2023/10/03 04:14:05;;;;;;;9.40;5.40;;;;;;;11.01;63.07;101340.11;105161;1257;61814;-63
2023/10/03 04:16:44;;;;;;;4.80;2.20;;;;;;;10.98;63.12;101341.16;105040;1258;64481;-62
2023/10/03 04:19:12;;;;;;;11.00;5.80;;;;;;;10.92;63.10;101342.12;105086;1260;60478;-63
2023/10/03 04:21:40;;;;;;;7.30;1.70;;;;;;;10.85;63.27;101342.20;105152;1257;60421;-60
2023/10/03 04:24:11;;;;;;;10.00;5.30;;;;;;;10.80;63.39;101346.06;105013;1263;63716;-63
2023/10/03 04:26:42;;;;;;;5.20;1.90;;;;;;;10.74;63.49;101351.89;105312;1262;60495;-63
2023/10/03 04:29:11;;;;;;;11.60;5.60;;;;;;;10.72;63.46;101356.57;105235;1257;64732;-62
2023/10/03 04:31:40;;;;;;;11.40;5.80;;;;;;;10.72;63.37;101354.96;105265;1258;60473;-63
2023/10/03 04:34:09;;;;;;;10.00;3.00;;;;;;;10.71;63.43;101355.42;106019;1257;60552;-63
2023/10/03 04:36:37;;;;;;;11.20;6.00;;;;;;;10.68;63.36;101359.14;105298;1259;73797;-64
2023/10/03 04:39:04;;;;;;;7.70;3.40;;;;;;;10.64;63.48;101364.12;105463;1257;61412;-63
2023/10/03 04:41:42;;;;;;;12.70;6.40;;;;;;;10.60;63.47;101361.72;105554;1260;64409;-63
2023/10/03 04:44:14;;;;;;;11.00;6.20;;;;;;;10.57;63.50;101364.52;105070;1258;60504;-63
2023/10/03 04:46:44;;;;;;;8.80;4.20;;;;;;;10.55;63.63;101367.27;105265;1263;61652;-65
2023/10/03 04:49:14;;;;;;;11.00;6.40;;;;;;;10.57;63.49;101370.66;105113;1257;64962;-62
2023/10/03 04:51:45;;;;;;;9.20;3.60;;;;;;;10.62;63.44;101371.25;105175;1258;61304;-62
2023/10/03 04:54:16;;;;;;;14.90;6.30;;;;;;;10.67;63.33;101371.30;105809;1259;63725;-63
2023/10/03 04:56:44;;;;;;;7.80;2.40;;;;;;;10.73;63.43;101371.23;105064;1259;60544;-63
2023/10/03 04:59:13;;;;;;;15.00;7.40;;;;;;;10.77;63.51;101371.52;105220;1258;60514;-63
2023/10/03 05:01:41;;;;;;;16.40;7.20;;;;;;;10.79;63.54;101370.71;104999;1264;64934;-56
2023/10/03 05:04:08;;;;;;;7.40;3.10;;;;;;;10.81;63.61;101372.14;105037;1258;61338;-65
2023/10/03 05:06:36;;;;;;;15.50;8.00;;;;;;;10.84;63.58;101372.14;105064;1260;73147;-58
2023/10/03 05:09:04;;;;;;;10.70;3.60;;;;;;;10.84;63.43;101374.23;105061;1259;60579;-62
2023/10/03 05:11:32;;;;;;;15.40;7.10;;;;;;;10.85;63.35;101375.56;105488;1260;60780;-61
2023/10/03 05:14:01;;;;;;;6.80;2.50;;;;;;;10.87;63.37;101375.10;106301;1257;64894;-60
2023/10/03 05:16:29;;;;;;;14.50;7.20;;;;;;;10.92;63.31;101375.81;105579;1257;61363;-65
2023/10/03 05:18:56;;;;;;;12.00;7.00;;;;;;;10.99;63.25;101372.89;105402;1263;63732;-65
2023/10/03 05:21:24;;;;;;;8.10;2.50;;;;;;;11.05;63.33;101370.55;104921;1263;60511;-65
2023/10/03 05:23:52;;;;;;;13.60;7.40;;;;;;;11.10;63.38;101373.77;105099;1257;60536;-67
2023/10/03 05:26:21;;;;;;;11.40;7.30;;;;;;;11.13;63.46;101375.69;105625;1258;64922;-67
2023/10/03 05:28:48;;;;;;;8.30;3.10;;;;;;;11.16;63.32;101378.99;105719;1258;61413;-67
2023/10/03 05:31:17;;;;;;;12.50;7.00;;;;;;;11.17;63.37;101382.92;105065;1261;63770;-63
2023/10/03 05:33:45;;;;;;;16.10;7.60;;;;;;;11.20;63.46;101382.95;105175;1260;60564;-64
2023/10/03 05:36:22;;;;;;;13.60;7.80;;;;;;;11.26;63.47;101386.94;105022;1263;60367;-64
2023/10/03 05:38:50;;;;;;;16.40;8.40;;;;;;;11.35;63.42;101385.63;105683;1257;64938;-58
2023/10/03 05:41:21;;;;;;;8.10;3.20;;;;;;;11.42;63.45;101386.40;105023;1257;61423;-57
2023/10/03 05:43:49;;;;;;;19.60;9.30;;;;;;;11.47;63.45;101387.46;105071;1261;63803;-58
2023/10/03 05:46:17;;;;;;;17.10;9.60;;;;;;;11.49;63.54;101389.23;105052;1263;60556;-65
2023/10/03 05:48:46;;;;;;;15.40;9.40;;;;;;;11.53;63.59;101388.75;108130;1258;60476;-62
2023/10/03 05:51:14;;;;;;;19.10;10.00;;;;;;;11.68;63.60;101387.95;105210;1258;65100;-64
2023/10/03 05:53:41;;;;;;;18.40;9.90;;;;;;;11.88;63.49;101391.52;105165;1257;70368;-57
2023/10/03 05:56:10;;;;;;;18.40;10.30;;;;;;;11.98;63.32;101391.15;105051;1263;62492;-57
2023/10/03 05:58:37;;;;;;;18.00;9.80;;;;;;;12.06;63.24;101394.79;105312;1260;61702;-59
2023/10/03 06:01:05;;;;;;;17.50;9.70;;;;;;;12.15;63.12;101390.00;105014;1257;60312;-58
2023/10/03 06:03:32;;;;;;;9.50;4.00;;;;;;;12.22;63.03;101388.96;105099;1257;64893;-55
2023/10/03 06:06:00;;;;;;;15.10;8.70;;;;;;;12.28;62.84;101390.30;105146;1261;61541;-61
2023/10/03 06:08:28;;;;;;;17.30;9.80;;;;;;;12.33;62.87;101382.19;104856;1258;63678;-62
2023/10/03 06:10:57;;;;;;;17.90;8.80;;;;;;;12.44;62.78;101379.46;105079;1264;60667;-63
2023/10/03 06:13:26;;;;;;;18.60;8.80;;;;;;;12.55;62.55;101378.16;105550;1257;60434;-63
2023/10/03 06:15:53;;;;;;;18.00;9.60;;;;;;;12.63;62.55;101380.73;107220;1260;65034;-63
2023/10/03 06:18:21;;;;;;;16.90;10.20;;;;;;;12.70;62.46;101379.88;105566;1257;61771;-57
2023/10/03 06:20:49;;;;;;;20.60;10.20;;;;;;;12.79;62.23;101383.66;108905;1260;64163;-64
2023/10/03 06:23:17;;;;;;;16.50;9.50;;;;;;;12.83;61.99;101377.55;108848;1257;58466;-62
2023/10/03 06:25:44;;;;;;;16.80;8.90;;;;;;;12.87;61.90;101377.77;108932;1258;58121;-67
2023/10/03 06:28:12;;;;;;;14.40;7.60;;;;;;;12.98;61.81;101370.96;108829;1257;65366;-60
2023/10/03 06:30:39;;;;;;;17.30;7.60;;;;;;;13.09;61.55;101365.36;108898;1257;61954;-59
2023/10/03 06:33:07;;;;;;;15.30;6.80;;;;;;;13.18;61.50;101366.30;108776;1263;62510;-59
2023/10/03 06:35:35;;;;;;;18.20;7.70;;;;;;;13.25;61.47;101369.13;108855;1258;58422;-63
2023/10/03 06:38:03;;;;;;;15.90;7.90;;;;;;;13.32;61.19;101372.15;108898;1257;58413;-61
2023/10/03 06:40:30;;;;;;;14.20;7.50;;;;;;;13.39;61.24;101370.55;108875;1257;63695;-64
2023/10/03 06:42:58;;;;;;;14.40;6.60;;;;;;;13.48;61.13;101373.27;108883;1259;61457;-63
2023/10/03 06:45:25;;;;;;;12.30;6.40;;;;;;;13.61;60.87;101378.45;106496;1260;63825;-62
2023/10/03 06:47:56;;;;;;;14.70;6.80;;;;;;;13.78;60.33;101389.66;105170;1257;61238;-62
2023/10/03 06:50:24;;;;;;;15.10;7.50;;;;;;;13.91;59.74;101388.83;105679;1258;60447;-65
2023/10/03 06:52:55;;;;;;;18.10;7.30;;;;;;;14.00;59.62;101382.80;105013;1257;63722;-60
2023/10/03 06:55:22;;;;;;;14.60;6.90;;;;;;;14.07;59.69;101379.93;107273;1257;61968;-65
2023/10/03 06:57:50;;;;;;;14.50;7.30;;;;;;;14.14;59.70;101385.42;105095;1263;63678;-64
2023/10/03 07:00:21;;;;;;;16.30;7.50;;;;;;;14.19;59.23;101391.85;105674;1257;60542;-65
2023/10/03 07:02:49;;;;;;;12.90;6.20;;;;;;;14.18;58.92;101385.77;105971;1257;60434;-62
2023/10/03 07:05:17;;;;;;;15.50;7.20;;;;;;;14.22;58.99;101383.33;105130;1258;65102;-62
2023/10/03 07:07:45;;;;;;;13.40;6.20;;;;;;;14.31;58.99;101380.14;104936;1261;61305;-61
2023/10/03 07:10:14;;;;;;;17.20;7.30;;;;;;;14.40;58.91;101377.53;105327;1263;62454;-61
2023/10/03 07:12:42;;;;;;;14.40;7.10;;;;;;;14.47;58.97;101377.98;105059;1260;60501;-62
2023/10/03 07:15:11;;;;;;;11.10;6.30;;;;;;;14.54;59.01;101379.43;105134;1258;60558;-61
2023/10/03 07:17:39;;;;;;;15.30;6.70;;;;;;;14.59;58.77;101380.59;106122;1257;65053;-62
2023/10/03 07:20:10;;;;;;;14.90;7.30;;;;;;;14.67;58.82;101378.39;105133;1260;62661;-62
2023/10/03 07:22:38;;;;;;;13.70;6.60;;;;;;;14.76;58.88;101378.19;105273;1259;64689;-58
2023/10/03 07:25:08;;;;;;;11.60;5.70;;;;;;;14.90;58.60;101380.23;105082;1258;60537;-58
2023/10/03 07:27:41;;;;;;;12.40;6.10;;;;;;;15.05;58.22;101383.25;105280;1257;60532;-66
2023/10/03 07:30:10;;;;;;;14.50;6.30;;;;;;;15.15;58.02;101379.37;105269;1257;64853;-65
2023/10/03 07:32:38;;;;;;;16.20;6.80;;;;;;;15.25;57.97;101380.81;105361;1263;60553;-66
2023/10/03 07:35:10;;;;;;;11.40;5.80;;;;;;;15.37;57.79;101376.47;105085;1263;63797;-66
2023/10/03 07:37:41;;;;;;;14.00;6.20;;;;;;;15.48;57.48;101373.25;105321;1258;60568;-66
2023/10/03 07:40:10;;;;;;;14.50;6.40;;;;;;;15.57;57.40;101371.08;105053;1262;60636;-65
2023/10/03 07:42:42;;;;;;;12.20;5.90;;;;;;;15.65;57.03;101370.70;105262;1262;64864;-66
2023/10/03 07:45:10;;;;;;;13.80;5.50;;;;;;;15.76;56.93;101370.02;105236;1257;60536;-65
2023/10/03 07:47:39;;;;;;;14.10;6.00;;;;;;;15.92;56.47;101371.24;105255;1263;63757;-65
2023/10/03 07:50:11;;;;;;;12.60;6.20;;;;;;;16.09;55.64;101372.81;105256;1258;61761;-62
2023/10/03 07:52:41;;;;;;;12.90;5.60;;;;;;;16.20;55.25;101366.67;105264;1257;60522;-63
2023/10/03 07:55:11;;;;;;;13.30;6.60;;;;;;;16.30;55.02;101367.95;105327;1263;65374;-65
2023/10/03 07:57:41;;;;;;;12.40;5.50;;;;;;;16.42;54.91;101370.66;105319;1261;61610;-64
2023/10/03 08:00:12;;;;;;;15.10;6.30;;;;;;;16.52;54.18;101369.56;105179;1259;63829;-57
2023/10/03 08:02:43;;;;;;;12.20;6.30;;;;;;;16.60;53.74;101366.35;106114;1258;60504;-57
2023/10/03 08:05:12;;;;;;;11.00;5.80;;;;;;;16.68;53.60;101363.70;105223;1257;60462;-57
2023/10/03 08:07:42;;;;;;;12.20;5.60;;;;;;;16.77;53.89;101362.36;105233;1262;68259;-57
2023/10/03 08:10:10;;;;;;;14.10;5.80;;;;;;;16.86;53.60;101369.02;105241;1262;63467;-56
2023/10/03 08:12:38;;;;;;;11.70;5.00;;;;;;;16.95;52.99;101373.02;105072;1257;65813;-57
2023/10/03 08:15:16;;;;;;;11.80;5.50;;;;;;;17.02;52.53;101374.77;105270;1260;60502;-67
2023/10/03 08:17:49;;;;;;;11.40;5.50;;;;;;;17.11;52.16;101377.39;105166;1263;60371;-65
2023/10/03 08:20:18;;;;;;;11.90;5.10;;;;;;;17.18;51.80;101373.35;105770;1257;67174;-66
2023/10/03 08:22:53;;;;;;;12.90;5.90;;;;;;;17.25;51.01;101374.48;105156;1257;63329;-66
2023/10/03 08:25:21;;;;;;;13.40;5.70;;;;;;;17.31;50.74;101370.42;105745;1258;65993;-66
2023/10/03 08:27:50;;;;;;;14.60;5.30;;;;;;;17.36;50.50;101367.30;105735;1257;61764;-60
2023/10/03 08:30:29;;;;;;;15.40;6.30;;;;;;;17.42;49.79;101361.95;105239;1257;60543;-60
2023/10/03 08:33:05;;;;;;;13.50;5.30;;;;;;;17.48;50.01;101357.08;105059;1257;67171;-60
2023/10/03 08:35:37;;;;;;;13.80;6.50;;;;;;;17.57;49.97;101354.27;105102;1257;61307;-57
2023/10/03 08:38:10;;;;;;;12.70;6.30;;;;;;;17.67;49.78;101350.54;105158;1260;63798;-59
2023/10/03 08:40:44;;;;;;;10.90;5.00;;;;;;;17.76;49.60;101348.74;105086;1257;60518;-54
2023/10/03 08:43:12;;;;;;;10.10;5.10;;;;;;;17.83;49.12;101347.86;105260;1262;60940;-55
2023/10/03 08:45:41;;;;;;;12.70;5.40;;;;;;;17.90;48.92;101338.63;105210;1262;67162;-56
2023/10/03 08:48:10;;;;;;;12.80;5.50;;;;;;;17.97;48.29;101339.63;106085;1258;61589;-62
2023/10/03 08:50:40;;;;;;;11.30;5.40;;;;;;;18.05;47.75;101343.88;105113;1263;65870;-58
2023/10/03 08:53:19;;;;;;;11.10;5.50;;;;;;;18.10;47.27;101343.27;105310;1258;60533;-56
2023/10/03 08:55:49;;;;;;;10.90;5.10;;;;;;;18.15;47.37;101336.39;105709;1262;60463;-56
2023/10/03 08:58:18;;;;;;;12.40;6.10;;;;;;;18.22;47.21;101329.83;105226;1257;64933;-57
2023/10/03 09:00:48;;;;;;;9.90;5.40;;;;;;;18.31;46.70;101326.15;105127;1257;61368;-57
2023/10/03 09:03:18;;;;;;;12.50;5.30;;;;;;;18.38;46.00;101323.09;105195;1262;66083;-57
2023/10/03 09:05:47;;;;;;;12.20;5.20;;;;;;;18.46;46.22;101319.34;105172;1258;60562;-55
2023/10/03 09:08:16;;;;;;;11.70;5.80;;;;;;;18.55;46.27;101318.23;105123;1262;60351;-57
2023/10/03 09:10:55;;;;;;;9.90;4.70;;;;;;;18.67;45.63;101319.70;105919;1257;63663;-55
2023/10/03 09:13:24;;;;;;;9.30;4.60;;;;;;;18.78;44.91;101320.98;105265;1262;438972;-56
2023/10/03 09:18:31;;;;;;;12.30;5.20;;;;;;;18.77;44.35;101315.20;102063;1293;601328;-58
2023/10/03 09:21:04;;;;;;;10.80;5.90;;;;;;;18.98;43.06;101313.84;108525;1265;57360;-58
2023/10/03 09:23:41;;;;;;;12.30;5.70;;;;;;;19.03;42.85;101313.52;108425;1266;58133;-58
2023/10/03 09:26:08;;;;;;;13.10;5.90;;;;;;;19.08;42.66;101308.54;108375;1267;62078;-58
2023/10/03 09:28:36;;;;;;;11.40;5.80;;;;;;;19.13;42.77;101307.46;108440;1266;63441;-56
2023/10/03 09:31:08;;;;;;;12.10;5.10;;;;;;;19.18;42.79;101308.77;104627;1263;491108;-56
2023/10/03 09:33:38;;;;;;;10.50;4.80;;;;;;;19.26;42.88;101311.35;104785;1269;60514;-56
2023/10/03 09:36:07;;;;;;;11.90;5.90;;;;;;;19.35;42.77;101314.14;104918;1264;59273;-58
2023/10/03 09:38:45;;;;;;;10.50;4.90;;;;;;;19.44;42.92;101309.88;104768;1264;63474;-57
2023/10/03 09:41:17;;;;;;;11.30;5.20;;;;;;;19.53;43.19;101304.82;104797;1265;60118;-56
2023/10/03 09:43:49;;;;;;;12.10;5.50;;;;;;;19.61;43.04;101307.70;104713;1263;63823;-57
2023/10/03 09:49:08;;;;;;;10.70;5.70;;;;;;;19.75;42.27;101310.42;104723;1263;59732;-57
2023/10/03 09:51:51;;;;;;;13.20;5.30;;;;;;;19.79;41.34;101305.21;104680;1272;64156;-55
2023/10/03 09:54:24;;;;;;;13.20;5.50;;;;;;;19.81;41.49;101300.39;105466;1264;61350;-57
2023/10/03 09:56:55;;;;;;;14.30;5.80;;;;;;;19.87;41.50;101294.95;106174;1254;64342;-65
2023/10/03 09:59:24;;;;;;;10.30;5.20;;;;;;;19.96;41.24;101292.79;105960;1254;61601;-63
2023/10/03 10:01:55;;;;;;;10.90;5.60;;;;;;;20.04;40.55;101292.30;106891;1254;59523;-58
2023/10/03 10:04:24;;;;;;;13.90;6.10;;;;;;;20.08;40.13;101289.05;105769;1256;64135;-67
2023/10/03 10:07:29;;;;;;;10.60;5.40;;;;;;;20.10;39.85;101286.95;105955;1254;61798;-65
2023/10/03 10:10:11;;;;;;;10.50;5.40;;;;;;;20.15;40.20;101287.19;105462;1253;63734;-63
2023/10/03 10:13:20;;;;;;;11.90;5.50;;;;;;;20.21;40.28;101289.67;105702;1254;59742;-65
2023/10/03 10:16:01;;;;;;;10.30;5.60;;;;;;;20.26;39.45;101290.25;105333;1254;60316;-67
2023/10/03 10:18:44;;;;;;;14.70;6.10;;;;;;;20.28;39.89;101286.31;105863;1254;64165;-69
2023/10/03 10:21:26;;;;;;;11.00;6.00;;;;;;;20.36;39.49;101282.58;105530;1254;63470;-59
2023/10/03 10:24:15;;;;;;;12.20;5.50;;;;;;;20.47;38.76;101281.65;105963;1254;72161;-65
2023/10/03 10:26:48;;;;;;;9.50;5.30;;;;;;;20.54;38.98;101278.73;105567;1254;61024;-57
2023/10/03 10:29:19;;;;;;;12.50;5.80;;;;;;;20.65;39.15;101274.33;105496;1256;59334;-57
2023/10/03 10:31:57;;;;;;;11.60;5.70;;;;;;;20.80;38.81;101271.28;105421;1253;62827;-56
2023/10/03 10:34:27;;;;;;;10.40;5.60;;;;;;;20.94;38.44;101271.17;105917;1256;61289;-56
2023/10/03 10:36:56;;;;;;;12.20;6.20;;;;;;;21.07;38.14;101269.21;105348;1254;62603;-57
2023/10/03 10:39:23;;;;;;;12.00;5.90;;;;;;;21.19;38.09;101264.38;105978;1254;59691;-59
2023/10/03 10:42:26;;;;;;;13.60;5.80;;;;;;;21.29;38.39;101261.77;105218;1253;59646;-60
2023/10/03 10:45:04;;;;;;;11.00;5.70;;;;;;;21.41;38.37;101257.79;105598;1257;64078;-59
2023/10/03 10:47:33;;;;;;;14.20;5.80;;;;;;;21.48;38.18;101258.25;105892;1257;60107;-59
2023/10/03 10:50:06;;;;;;;12.40;5.80;;;;;;;21.48;37.40;101257.48;105815;1254;62595;-58
2023/10/03 10:53:02;;;;;;;10.20;5.20;;;;;;;21.42;37.78;101255.02;105653;1257;60582;-59
2023/10/03 10:55:33;;;;;;;12.10;5.60;;;;;;;21.37;38.22;101251.84;105859;1257;59660;-58
2023/10/03 10:58:09;;;;;;;10.50;5.30;;;;;;;21.41;38.68;101250.69;105736;1253;64092;-58
2023/10/03 11:00:37;;;;;;;15.10;6.00;;;;;;;21.47;37.92;101248.75;105603;1254;72718;-56
2023/10/03 11:03:06;;;;;;;11.60;5.60;;;;;;;21.53;37.42;101246.39;106451;1254;63752;-57
2023/10/03 11:05:47;;;;;;;11.50;5.40;;;;;;;21.60;37.13;101239.20;105731;1254;62603;-57
2023/10/03 11:08:19;;;;;;;10.40;5.30;;;;;;;21.63;37.38;101237.85;105535;1257;59749;-56
2023/10/03 11:10:53;;;;;;;12.10;5.60;;;;;;;21.64;37.73;101237.46;105330;1253;64084;-56
2023/10/03 11:13:21;;;;;;;10.00;5.70;;;;;;;21.63;37.67;101231.91;105406;1254;61325;-59
2023/10/03 11:15:52;;;;;;;11.20;5.30;;;;;;;21.62;37.77;101230.37;105158;1257;64107;-58
2023/10/03 11:18:27;;;;;;;11.20;5.90;;;;;;;21.60;37.22;101227.98;106057;1254;59742;-57
2023/10/03 11:20:59;;;;;;;;;;;;;;;21.56;36.76;101222.91;106046;1256;59719;-54
2023/10/03 11:23:27;;;;;;;8.60;5.00;;;;;;;21.52;36.66;101217.61;105781;1254;64108;-53
2023/10/03 11:25:58;;;;;;;11.40;5.60;;;;;;;21.55;37.06;101219.64;105856;1257;72591;-57
2023/10/03 11:28:29;;;;;;;10.80;5.00;;;;;;;21.58;37.13;101213.93;105308;1254;64715;-55
2023/10/03 11:31:04;;;;;;;12.00;5.50;;;;;;;21.63;37.45;101207.84;105197;1259;59663;-55
2023/10/03 11:33:47;;;;;;;10.90;5.70;;;;;;;21.73;37.37;101209.55;105627;1258;59640;-58